Acapulco Jet — IWUM — position and weather

sailwx.info

Track history (hours):
 
Tides and Currents Weather Stations Pressure Air Temp Water Temp Dewpoint Dewpoint Depression Visibility Wind Speed Wind Dir Waves Ship Positions

Acapulco Jet

Last reported at 2016-Jun-29 08:12 UTC. Time now 2016-Jun-29 09:20 UTC.
Position N 42°55' E 010°33'.

Length 35 m; draft 1.3 m.

Type: High speed craft. MMSI: 247050100.

Date/timePositionNaut miles runAvg speedWind from/ knotsBaromVisibWave heightAir tempDewpointWater temp
2016-Jun-29 08:12N 42°55' E 010°33'1215.3
2016-Jun-29 07:26N 42°49' E 010°19'13 6.4
2016-Jun-29 05:27N 42°56' E 010°34'7 0.6
2016-Jun-28 17:30N 42°52' E 010°26'0 0.1
2016-Jun-28 16:32N 42°52' E 010°26'7 5.6
2016-Jun-28 15:15N 42°56' E 010°34'1313.6
2016-Jun-28 14:19N 42°49' E 010°19'2 2.0
2016-Jun-28 13:33N 42°50' E 010°21'4 2.1
2016-Jun-28 11:33N 42°52' E 010°26'0 0.2
2016-Jun-28 09:33N 42°52' E 010°25'0 0.0
2016-Jun-27 13:19N 42°52' E 010°25'0 0.0
2016-Jun-26 17:33N 42°52' E 010°25'0 0.1
2016-Jun-26 16:33N 42°52' E 010°26'7 5.3
2016-Jun-26 15:17N 42°56' E 010°33'1216.1
2016-Jun-26 14:32N 42°49' E 010°19'1 1.5
2016-Jun-26 13:33N 42°49' E 010°21'4 1.9
2016-Jun-26 11:32N 42°52' E 010°26'0 0.0
2016-Jun-25 11:33N 42°52' E 010°26'3 1.6
2016-Jun-25 09:25N 42°53' E 010°29'4 3.2
2016-Jun-25 08:18N 42°56' E 010°33'7 5.6
2016-Jun-25 07:04N 42°52' E 010°25'7 4.6
2016-Jun-25 05:30N 42°56' E 010°33'1212.3
2016-Jun-25 04:30N 42°49' E 010°19'5 0.5
2016-Jun-24 17:33N 42°52' E 010°26'0 0.0
2016-Jun-24 16:32N 42°52' E 010°25'3 1.1
2016-Jun-24 13:33N 42°50' E 010°21'3 1.7
2016-Jun-24 11:32N 42°52' E 010°26'0 0.0
2016-Jun-24 09:32N 42°52' E 010°26'7 5.5
2016-Jun-24 08:16N 42°56' E 010°33'1213.1
2016-Jun-24 07:21N 42°49' E 010°20'5 0.4
2016-Jun-23 17:33N 42°52' E 010°26'0 0.0
2016-Jun-23 11:33N 42°52' E 010°26'6 5.5
2016-Jun-23 10:33N 42°49' E 010°19'5 5.5
2016-Jun-23 09:33N 42°52' E 010°26'5 3.1
2016-Jun-23 08:06N 42°53' E 010°31'1017.7
2016-Jun-23 07:33N 42°49' E 010°19'7 3.2
2016-Jun-23 05:17N 42°52' E 010°28'5 0.3
2016-Jun-22 13:33N 42°50' E 010°21'0 0.1
2016-Jun-22 07:17N 42°50' E 010°22'11 5.8
2016-Jun-22 05:27N 42°56' E 010°33'7 0.6
2016-Jun-21 17:33N 42°52' E 010°25'1 1.0
2016-Jun-21 16:34N 42°52' E 010°25'7 5.6
2016-Jun-21 15:17N 42°56' E 010°33'1215.9
2016-Jun-21 14:30N 42°49' E 010°19'1 1.5
2016-Jun-21 13:33N 42°49' E 010°21'4 2.0
2016-Jun-21 11:33N 42°52' E 010°26'0 0.1
2016-Jun-21 09:33N 42°52' E 010°25'7 5.6
2016-Jun-21 08:17N 42°56' E 010°33'1217.2
2016-Jun-21 07:33N 42°49' E 010°19'5 0.4
2016-Jun-20 17:33N 42°52' E 010°25'0 0.0
2016-Jun-20 16:33N 42°52' E 010°25'7 5.6
2016-Jun-20 15:18N 42°56' E 010°33'11 6.2
2016-Jun-20 13:33N 42°50' E 010°21'4 2.0
2016-Jun-20 11:33N 42°52' E 010°26'5 1.2
2016-Jun-20 07:20N 42°49' E 010°20'  
Track history (hours):
 
Tides and Currents Weather Stations Pressure Air Temp Water Temp Dewpoint Dewpoint Depression Visibility Wind Speed Wind Dir Waves Ship Positions

Acapulco Jet

Last reported at 2016-Jun-29 08:12 UTC. Time now 2016-Jun-29 09:20 UTC.
Position N 42°55' E 010°33'.

Length 35 m; draft 1.3 m.

Type: High speed craft. MMSI: 247050100.

Date/timePositionNaut miles runAvg speedWind from/ knotsBaromVisibWave heightAir tempDewpointWater temp
2016-Jun-29 08:12N 42°55' E 010°33'1215.3
2016-Jun-29 07:26N 42°49' E 010°19'13 6.4
2016-Jun-29 05:27N 42°56' E 010°34'7 0.6
2016-Jun-28 17:30N 42°52' E 010°26'0 0.1
2016-Jun-28 16:32N 42°52' E 010°26'7 5.6
2016-Jun-28 15:15N 42°56' E 010°34'1313.6
2016-Jun-28 14:19N 42°49' E 010°19'2 2.0
2016-Jun-28 13:33N 42°50' E 010°21'4 2.1
2016-Jun-28 11:33N 42°52' E 010°26'0 0.2
2016-Jun-28 09:33N 42°52' E 010°25'0 0.0
2016-Jun-27 13:19N 42°52' E 010°25'0 0.0
2016-Jun-26 17:33N 42°52' E 010°25'0 0.1
2016-Jun-26 16:33N 42°52' E 010°26'7 5.3
2016-Jun-26 15:17N 42°56' E 010°33'1216.1
2016-Jun-26 14:32N 42°49' E 010°19'1 1.5
2016-Jun-26 13:33N 42°49' E 010°21'4 1.9
2016-Jun-26 11:32N 42°52' E 010°26'0 0.0
2016-Jun-25 11:33N 42°52' E 010°26'3 1.6
2016-Jun-25 09:25N 42°53' E 010°29'4 3.2
2016-Jun-25 08:18N 42°56' E 010°33'7 5.6
2016-Jun-25 07:04N 42°52' E 010°25'7 4.6
2016-Jun-25 05:30N 42°56' E 010°33'1212.3
2016-Jun-25 04:30N 42°49' E 010°19'5 0.5
2016-Jun-24 17:33N 42°52' E 010°26'0 0.0
2016-Jun-24 16:32N 42°52' E 010°25'3 1.1
2016-Jun-24 13:33N 42°50' E 010°21'3 1.7
2016-Jun-24 11:32N 42°52' E 010°26'0 0.0
2016-Jun-24 09:32N 42°52' E 010°26'7 5.5
2016-Jun-24 08:16N 42°56' E 010°33'1213.1
2016-Jun-24 07:21N 42°49' E 010°20'5 0.4
2016-Jun-23 17:33N 42°52' E 010°26'0 0.0
2016-Jun-23 11:33N 42°52' E 010°26'6 5.5
2016-Jun-23 10:33N 42°49' E 010°19'5 5.5
2016-Jun-23 09:33N 42°52' E 010°26'5 3.1
2016-Jun-23 08:06N 42°53' E 010°31'1017.7
2016-Jun-23 07:33N 42°49' E 010°19'7 3.2
2016-Jun-23 05:17N 42°52' E 010°28'5 0.3
2016-Jun-22 13:33N 42°50' E 010°21'0 0.1
2016-Jun-22 07:17N 42°50' E 010°22'11 5.8
2016-Jun-22 05:27N 42°56' E 010°33'7 0.6
2016-Jun-21 17:33N 42°52' E 010°25'1 1.0
2016-Jun-21 16:34N 42°52' E 010°25'7 5.6
2016-Jun-21 15:17N 42°56' E 010°33'1215.9
2016-Jun-21 14:30N 42°49' E 010°19'1 1.5
2016-Jun-21 13:33N 42°49' E 010°21'4 2.0
2016-Jun-21 11:33N 42°52' E 010°26'0 0.1
2016-Jun-21 09:33N 42°52' E 010°25'7 5.6
2016-Jun-21 08:17N 42°56' E 010°33'1217.2
2016-Jun-21 07:33N 42°49' E 010°19'5 0.4
2016-Jun-20 17:33N 42°52' E 010°25'0 0.0
2016-Jun-20 16:33N 42°52' E 010°25'7 5.6
2016-Jun-20 15:18N 42°56' E 010°33'11 6.2
2016-Jun-20 13:33N 42°50' E 010°21'4 2.0
2016-Jun-20 11:33N 42°52' E 010°26'5 1.2
2016-Jun-20 07:20N 42°49' E 010°20'  

Dump ship's entire track history